createdAt,value
2017-08-12T00:00:50.103Z,12.88
2017-08-12T00:03:19.414Z,12.73
2017-08-12T00:05:48.739Z,13.55
2017-08-12T00:08:18.829Z,14.43
2017-08-12T00:10:48.160Z,13.80
2017-08-12T00:13:17.479Z,14.85
2017-08-12T00:15:46.809Z,14.25
2017-08-12T00:18:16.130Z,15.45
2017-08-12T00:20:45.457Z,13.70
2017-08-12T00:23:14.776Z,14.98
2017-08-12T00:25:44.880Z,15.02
2017-08-12T00:28:14.195Z,14.35
2017-08-12T00:30:44.312Z,14.40
2017-08-12T00:33:14.393Z,15.25
2017-08-12T00:35:43.735Z,14.93
2017-08-12T00:38:13.824Z,13.52
2017-08-12T00:40:43.148Z,14.45
2017-08-12T00:43:13.251Z,13.77
2017-08-12T00:45:42.563Z,14.35
2017-08-12T00:48:11.896Z,12.90
2017-08-12T00:50:41.217Z,13.77
2017-08-12T00:53:10.548Z,14.18
2017-08-12T00:55:39.861Z,14.20
2017-08-12T00:58:09.196Z,13.27
2017-08-12T01:03:46.268Z,13.70
2017-08-12T01:06:15.592Z,13.85
2017-08-12T01:08:44.925Z,14.65
2017-08-12T01:11:14.232Z,13.95
2017-08-12T01:13:43.836Z,14.77
2017-08-12T01:16:13.145Z,12.60
2017-08-12T01:18:42.457Z,12.50
2017-08-12T01:21:11.789Z,12.25
2017-08-12T01:23:41.104Z,12.25
2017-08-12T01:26:11.203Z,13.62
2017-08-12T01:28:40.518Z,13.75
2017-08-12T01:31:09.852Z,12.00
2017-08-12T01:33:39.175Z,12.32
2017-08-12T01:36:08.503Z,14.10
2017-08-12T01:38:37.836Z,12.10
2017-08-12T01:41:07.165Z,13.40
2017-08-12T01:43:36.487Z,12.82
2017-08-12T01:46:05.820Z,12.25
2017-08-12T01:48:35.142Z,12.63
2017-08-12T01:51:05.241Z,12.90
2017-08-12T01:53:34.564Z,12.07
2017-08-12T01:56:04.659Z,12.43
2017-08-12T01:58:33.980Z,13.95
2017-08-12T02:01:04.138Z,12.90
2017-08-12T02:03:33.442Z,12.82
2017-08-12T02:06:02.758Z,14.18
2017-08-12T02:08:32.087Z,11.80
2017-08-12T02:11:01.446Z,13.90
2017-08-12T02:13:30.792Z,11.93
2017-08-12T02:16:00.107Z,12.43
2017-08-12T02:18:30.212Z,12.75
2017-08-12T02:20:59.555Z,11.25
2017-08-12T02:23:28.884Z,10.88
2017-08-12T02:25:58.208Z,12.37
2017-08-12T02:28:27.551Z,10.77
2017-08-12T02:30:57.629Z,10.40
2017-08-12T02:33:26.960Z,8.80
2017-08-12T02:35:56.268Z,9.07
2017-08-12T02:38:26.364Z,8.27
2017-08-12T02:40:55.673Z,8.85
2017-08-12T02:43:25.004Z,9.60
2017-08-12T02:45:54.312Z,9.27
2017-08-12T02:48:23.635Z,9.88
2017-08-12T02:50:52.956Z,9.85
2017-08-12T02:53:22.261Z,8.90
2017-08-12T02:55:51.587Z,10.43
2017-08-12T02:58:21.660Z,9.50
2017-08-12T03:00:50.988Z,9.10
2017-08-12T03:03:20.313Z,9.35
2017-08-12T03:05:49.631Z,8.50
2017-08-12T03:08:18.950Z,9.15
2017-08-12T03:10:48.283Z,8.52
2017-08-12T03:13:17.613Z,8.63
2017-08-12T03:15:47.021Z,8.15
2017-08-12T03:18:16.326Z,8.15
2017-08-12T03:20:45.695Z,8.23
2017-08-12T03:23:15.041Z,9.13
2017-08-12T03:25:44.373Z,9.98
2017-08-12T03:28:13.687Z,8.70
2017-08-12T03:30:43.016Z,9.88
2017-08-12T03:33:12.343Z,9.75
2017-08-12T03:35:42.470Z,9.25
2017-08-12T03:38:11.784Z,9.35
2017-08-12T03:40:41.137Z,9.60
2017-08-12T03:43:10.451Z,10.52
2017-08-12T03:45:40.552Z,9.10
2017-08-12T03:48:09.889Z,9.80
2017-08-12T03:50:39.211Z,9.25
2017-08-12T03:53:08.546Z,9.98
2017-08-12T03:55:37.973Z,9.68
2017-08-12T03:58:07.409Z,10.35
2017-08-12T04:00:36.724Z,9.52
2017-08-12T04:03:06.061Z,10.73
2017-08-12T04:05:35.398Z,8.85
2017-08-12T04:08:05.496Z,9.07
2017-08-12T04:10:35.597Z,10.27
2017-08-12T04:13:06.873Z,10.15
2017-08-12T04:15:36.972Z,10.00
2017-08-12T04:18:06.313Z,9.98
2017-08-12T04:20:36.404Z,9.65
2017-08-12T04:23:06.392Z,9.75
2017-08-12T04:25:35.722Z,10.80
2017-08-12T04:28:05.194Z,9.35
2017-08-12T04:30:34.520Z,9.45
2017-08-12T04:33:03.833Z,10.27
2017-08-12T04:35:33.168Z,8.85
2017-08-12T04:38:02.489Z,10.18
2017-08-12T04:40:31.842Z,10.15
2017-08-12T04:43:01.166Z,10.05
2017-08-12T04:45:31.268Z,9.77
2017-08-12T04:48:00.589Z,10.35
2017-08-12T04:50:30.716Z,9.52
2017-08-12T04:53:00.074Z,8.40
2017-08-12T04:55:29.649Z,8.70
2017-08-12T04:57:59.254Z,9.35
2017-08-12T05:00:28.930Z,9.02
2017-08-12T05:02:59.437Z,8.98
2017-08-12T05:05:29.042Z,9.27
2017-08-12T05:07:58.653Z,10.07
2017-08-12T05:10:28.112Z,8.95
2017-08-12T05:12:57.666Z,10.63
2017-08-12T05:15:27.411Z,9.48
2017-08-12T05:17:58.057Z,9.93
2017-08-12T05:20:27.893Z,10.05
2017-08-12T05:22:58.868Z,9.00
2017-08-12T05:25:28.346Z,9.68
2017-08-12T05:28:05.096Z,10.35
2017-08-12T05:30:34.612Z,9.40
2017-08-12T05:33:04.189Z,9.77
2017-08-12T05:35:34.299Z,10.43
2017-08-12T05:38:03.817Z,10.23
2017-08-12T05:40:33.228Z,10.00
2017-08-12T05:43:02.569Z,9.75
2017-08-12T05:45:31.940Z,9.52
2017-08-12T05:48:02.139Z,8.30
2017-08-12T05:50:32.286Z,8.02
2017-08-12T05:53:01.617Z,6.72
2017-08-12T05:55:31.653Z,7.00
2017-08-12T05:58:00.981Z,6.97
2017-08-12T06:00:30.292Z,7.30
2017-08-12T06:02:59.608Z,6.80
2017-08-12T06:05:28.961Z,6.70
2017-08-12T06:07:58.289Z,6.55
2017-08-12T06:10:27.655Z,6.15
2017-08-12T06:12:56.993Z,6.10
2017-08-12T06:15:26.304Z,6.25
2017-08-12T06:17:55.631Z,6.57
2017-08-12T06:20:24.953Z,7.25
2017-08-12T06:22:54.264Z,7.03
2017-08-12T06:25:23.584Z,6.82
2017-08-12T06:27:53.675Z,6.75
2017-08-12T06:30:23.008Z,6.80
2017-08-12T06:32:53.095Z,6.15
2017-08-12T06:35:22.425Z,6.80
2017-08-12T06:37:51.742Z,6.40
2017-08-12T06:40:21.825Z,6.65
2017-08-12T06:42:51.200Z,6.50
2017-08-12T06:45:20.526Z,6.55
2017-08-12T06:47:49.828Z,6.53
2017-08-12T06:50:19.184Z,6.95
2017-08-12T06:52:48.637Z,5.72
2017-08-12T06:55:17.948Z,5.70
2017-08-12T06:57:47.279Z,6.50
2017-08-12T07:00:16.692Z,5.97
2017-08-12T07:02:46.019Z,6.20
2017-08-12T07:05:15.347Z,5.10
2017-08-12T07:07:44.661Z,5.35
2017-08-12T07:10:14.748Z,6.10
2017-08-12T07:12:44.089Z,5.95
2017-08-12T07:15:13.400Z,5.55
2017-08-12T07:17:43.487Z,5.20
2017-08-12T07:20:12.814Z,5.32
2017-08-12T07:22:42.193Z,5.55
2017-08-12T07:25:11.524Z,5.75
2017-08-12T07:27:41.769Z,5.65
2017-08-12T07:30:11.086Z,5.10
2017-08-12T07:32:41.421Z,5.10
2017-08-12T07:35:10.740Z,4.60
2017-08-12T07:37:51.555Z,3.97
2017-08-12T07:40:22.520Z,4.22
2017-08-12T07:42:51.908Z,4.35
2017-08-12T07:45:29.544Z,3.50
2017-08-12T07:48:02.701Z,3.40
2017-08-12T07:50:32.295Z,4.40
2017-08-12T07:53:01.880Z,3.20
2017-08-12T07:55:31.308Z,3.50
2017-08-12T07:58:01.611Z,3.75
2017-08-12T08:00:30.996Z,3.08
2017-08-12T08:03:00.601Z,3.15
2017-08-12T08:05:29.916Z,3.40
2017-08-12T08:07:59.227Z,2.90
2017-08-12T08:10:28.549Z,3.90
2017-08-12T08:12:57.872Z,3.03
2017-08-12T08:15:27.364Z,3.35
2017-08-12T08:17:57.433Z,3.87
2017-08-12T08:21:11.671Z,4.15
2017-08-12T08:23:42.173Z,3.67
2017-08-12T08:26:12.020Z,4.00
2017-08-12T08:28:41.353Z,3.33
2017-08-12T08:31:10.686Z,3.05
2017-08-12T08:33:40.044Z,3.45
2017-08-12T08:36:09.561Z,3.78
2017-08-12T08:38:38.863Z,2.97
2017-08-12T08:41:08.974Z,3.20
2017-08-12T08:43:39.048Z,3.00
2017-08-12T08:46:08.380Z,2.40
2017-08-12T08:48:37.890Z,2.78
2017-08-12T08:51:07.261Z,3.20
2017-08-12T08:53:36.590Z,2.22
2017-08-12T08:56:05.892Z,2.80
2017-08-12T08:58:35.235Z,2.65
2017-08-12T09:01:04.545Z,2.30
2017-08-12T09:03:33.906Z,2.47
2017-08-12T09:06:03.208Z,2.78
2017-08-12T09:08:33.241Z,3.15
2017-08-12T09:11:02.555Z,2.70
2017-08-12T09:13:32.729Z,2.12
2017-08-12T09:16:02.028Z,2.40
2017-08-12T09:18:31.353Z,2.70
2017-08-12T09:21:00.700Z,2.92
2017-08-12T09:23:30.014Z,3.10
2017-08-12T09:25:59.331Z,3.05
2017-08-12T09:28:28.656Z,2.35
2017-08-12T09:30:58.019Z,2.65
2017-08-12T09:33:27.350Z,2.70
2017-08-12T09:35:56.762Z,3.15
2017-08-12T09:38:26.077Z,3.35
2017-08-12T09:40:55.385Z,3.20
2017-08-12T09:43:25.457Z,3.28
2017-08-12T09:45:54.788Z,3.45
2017-08-12T09:48:24.095Z,3.92
2017-08-12T09:50:54.187Z,3.33
2017-08-12T09:53:23.504Z,4.40
2017-08-12T09:55:52.829Z,3.70
2017-08-12T09:58:22.957Z,4.35
2017-08-12T10:00:52.294Z,3.78
2017-08-12T10:03:21.610Z,4.53
2017-08-12T10:05:51.136Z,4.15
2017-08-12T10:08:20.653Z,4.47
2017-08-12T10:10:49.969Z,4.20
2017-08-12T10:13:20.040Z,4.32
2017-08-12T10:15:49.371Z,4.18
2017-08-12T10:18:18.689Z,4.75
2017-08-12T10:20:48.775Z,5.22
2017-08-12T10:23:26.760Z,4.60
2017-08-12T10:25:56.105Z,4.93
2017-08-12T10:28:26.199Z,5.00
2017-08-12T10:30:56.495Z,5.37
2017-08-12T10:33:25.905Z,5.22
2017-08-12T10:35:55.246Z,4.93
2017-08-12T10:38:24.557Z,4.57
2017-08-12T10:40:54.084Z,5.25
2017-08-12T10:43:26.469Z,5.22
2017-08-12T10:45:55.816Z,4.87
2017-08-12T10:48:25.158Z,4.95
2017-08-12T10:50:54.474Z,5.20
2017-08-12T10:53:23.792Z,4.57
2017-08-12T10:55:53.110Z,4.75
2017-08-12T10:58:22.440Z,4.32
2017-08-12T11:00:52.516Z,4.20
2017-08-12T11:03:21.836Z,5.35
2017-08-12T11:05:51.141Z,5.00
2017-08-12T11:08:20.479Z,4.70
2017-08-12T11:10:50.550Z,4.97
2017-08-12T11:13:20.585Z,4.78
2017-08-12T11:15:51.366Z,4.45
2017-08-12T11:18:20.680Z,4.55
2017-08-12T11:20:50.079Z,4.37
2017-08-12T11:23:19.448Z,4.87
2017-08-12T11:25:49.517Z,4.60
2017-08-12T11:28:18.855Z,4.87
2017-08-12T11:30:48.164Z,4.60
2017-08-12T11:33:18.277Z,4.68
2017-08-12T11:35:47.633Z,4.95
2017-08-12T11:38:16.937Z,3.75
2017-08-12T11:40:47.321Z,4.00
2017-08-12T11:43:16.662Z,3.83
2017-08-12T11:45:46.010Z,4.43
2017-08-12T11:48:15.413Z,3.85
2017-08-12T11:50:45.233Z,4.50
2017-08-12T11:53:14.565Z,5.32
2017-08-12T11:55:59.057Z,4.20
2017-08-12T11:58:28.377Z,3.60
2017-08-12T12:03:27.104Z,3.37
2017-08-12T12:05:56.569Z,3.40
2017-08-12T12:08:26.106Z,3.40
2017-08-12T12:10:55.532Z,3.62
2017-08-12T12:13:29.194Z,3.42
2017-08-12T12:16:02.422Z,3.70
2017-08-12T12:18:32.124Z,3.35
2017-08-12T12:21:02.642Z,3.58
2017-08-12T12:23:32.281Z,3.50
2017-08-12T12:26:02.360Z,3.30
2017-08-12T12:28:31.877Z,3.25
2017-08-12T12:31:02.349Z,3.58
2017-08-12T12:33:31.777Z,3.30
2017-08-12T12:36:01.387Z,3.22
2017-08-12T12:38:31.638Z,2.80
2017-08-12T12:41:02.172Z,2.95
2017-08-12T12:43:33.977Z,3.33
2017-08-12T12:46:05.433Z,3.35
2017-08-12T12:48:35.105Z,3.05
2017-08-12T12:51:04.764Z,3.22
2017-08-12T12:53:34.372Z,3.40
2017-08-12T12:56:03.953Z,4.22
2017-08-12T12:58:35.553Z,3.60
2017-08-12T13:01:05.510Z,3.20
2017-08-12T13:03:35.098Z,3.00
2017-08-12T13:06:05.486Z,3.00
2017-08-12T13:08:37.757Z,4.18
2017-08-12T13:11:07.322Z,3.15
2017-08-12T13:13:37.167Z,2.65
2017-08-12T13:16:06.929Z,3.20
2017-08-12T13:18:36.683Z,3.20
2017-08-12T13:21:06.283Z,3.28
2017-08-12T13:23:35.739Z,3.90
2017-08-12T13:26:05.410Z,3.20
2017-08-12T13:28:35.935Z,3.00
2017-08-12T13:31:17.105Z,3.50
2017-08-12T13:34:08.981Z,2.80
2017-08-12T13:42:35.561Z,3.28
2017-08-12T13:48:02.130Z,3.33
2017-08-12T13:50:38.074Z,3.15
2017-08-12T13:53:14.233Z,3.25
2017-08-12T13:55:49.741Z,3.53
2017-08-12T13:58:27.049Z,3.25
2017-08-12T14:01:09.898Z,2.85
2017-08-12T14:03:48.996Z,3.85
2017-08-12T14:06:25.142Z,2.83
2017-08-12T14:09:06.257Z,2.95
2017-08-12T14:11:54.286Z,2.80
2017-08-12T14:14:36.649Z,3.15
2017-08-12T14:17:20.564Z,2.80
2017-08-12T14:20:01.968Z,3.55
2017-08-12T14:22:36.964Z,3.53
2017-08-12T14:25:11.153Z,3.62
2017-08-12T14:27:43.858Z,3.80
2017-08-12T14:30:13.461Z,5.12
2017-08-12T14:32:42.965Z,4.28
2017-08-12T14:35:12.556Z,4.50
2017-08-12T14:37:43.553Z,4.45
2017-08-12T14:40:12.938Z,4.18
2017-08-12T14:42:42.799Z,4.37
2017-08-12T14:45:13.090Z,4.80
2017-08-12T14:47:42.577Z,4.15
2017-08-12T14:50:12.967Z,3.83
2017-08-12T14:52:42.553Z,4.15
2017-08-12T14:55:13.694Z,4.00
2017-08-12T14:57:43.219Z,3.58
2017-08-12T15:00:12.873Z,3.97
2017-08-12T15:02:43.506Z,3.33
2017-08-12T15:05:13.219Z,3.83
2017-08-12T15:07:45.274Z,3.60
2017-08-12T15:10:15.123Z,3.10
2017-08-12T15:12:44.817Z,2.87
2017-08-12T15:15:15.066Z,4.62
2017-08-12T15:17:45.307Z,2.80
2017-08-12T15:20:15.562Z,2.75
2017-08-12T15:22:45.727Z,2.80
2017-08-12T15:25:15.413Z,2.90
2017-08-12T15:27:44.999Z,2.58
2017-08-12T15:30:15.762Z,2.30
2017-08-12T15:32:46.495Z,3.30
2017-08-12T15:35:17.892Z,2.95
2017-08-12T15:37:47.316Z,2.40
2017-08-12T15:40:16.625Z,2.70
2017-08-12T15:42:45.958Z,2.90
2017-08-12T15:45:15.268Z,2.47
2017-08-12T15:47:44.607Z,2.80
2017-08-12T15:50:14.711Z,2.90
2017-08-12T15:52:44.817Z,2.70
2017-08-12T15:55:14.125Z,3.42
2017-08-12T15:57:43.461Z,3.60
2017-08-12T16:00:12.785Z,3.05
2017-08-12T16:02:42.148Z,7.07
2017-08-12T16:05:11.466Z,3.95
2017-08-12T16:07:40.798Z,3.00
2017-08-12T16:10:10.242Z,3.50
2017-08-12T16:12:39.589Z,5.97
2017-08-12T16:15:08.876Z,3.85
2017-08-12T16:17:39.085Z,2.65
2017-08-12T16:20:08.392Z,3.15
2017-08-12T16:22:37.724Z,3.00
2017-08-12T16:25:07.035Z,3.22
2017-08-12T16:27:36.408Z,3.15
2017-08-12T16:30:06.558Z,3.20
2017-08-12T16:32:35.885Z,3.30
2017-08-12T16:35:05.220Z,2.75
2017-08-12T16:37:34.536Z,2.80
2017-08-12T16:40:03.853Z,3.00
2017-08-12T16:42:33.156Z,2.92
2017-08-12T16:45:02.489Z,2.85
2017-08-12T16:47:31.788Z,2.53
2017-08-12T16:50:01.113Z,2.70
2017-08-12T16:52:30.420Z,3.33
2017-08-12T16:54:59.749Z,2.55
2017-08-12T16:57:29.961Z,2.80
2017-08-12T16:59:59.292Z,2.45
2017-08-12T17:02:28.614Z,2.45
2017-08-12T17:04:57.975Z,2.75
2017-08-12T17:07:27.326Z,3.00
2017-08-12T17:09:57.490Z,3.03
2017-08-12T17:12:26.792Z,2.75
2017-08-12T17:14:56.101Z,3.05
2017-08-12T17:17:25.484Z,3.00
2017-08-12T17:19:54.806Z,2.80
2017-08-12T17:22:24.140Z,3.17
2017-08-12T17:24:53.450Z,2.53
2017-08-12T17:27:23.532Z,2.72
2017-08-12T17:29:52.855Z,2.80
2017-08-12T17:32:22.193Z,2.90
2017-08-12T17:34:51.502Z,3.10
2017-08-12T17:37:20.839Z,3.37
2017-08-12T17:39:50.166Z,3.40
2017-08-12T17:42:19.774Z,3.42
2017-08-12T17:44:49.848Z,4.25
2017-08-12T17:47:20.488Z,3.25
2017-08-12T17:49:50.269Z,2.83
2017-08-12T17:52:19.613Z,3.40
2017-08-12T17:54:48.988Z,3.35
2017-08-12T17:57:18.353Z,2.75
2017-08-12T17:59:49.525Z,3.90
2017-08-12T18:02:18.833Z,3.87
2017-08-12T18:04:48.170Z,3.95
2017-08-12T18:07:17.796Z,4.50
2017-08-12T18:09:48.742Z,3.80
2017-08-12T18:12:18.554Z,3.42
2017-08-12T18:14:48.147Z,3.55
2017-08-12T18:17:19.478Z,3.80
2017-08-12T18:19:49.215Z,3.33
2017-08-12T18:22:19.465Z,3.20
2017-08-12T18:24:48.969Z,3.15
2017-08-12T18:27:18.277Z,3.35
2017-08-12T18:29:47.842Z,3.15
2017-08-12T18:32:17.207Z,3.22
2017-08-12T18:34:46.518Z,3.10
2017-08-12T18:37:15.880Z,3.03
2017-08-12T18:39:45.185Z,2.90
2017-08-12T18:42:14.521Z,3.60
2017-08-12T18:44:43.845Z,2.85
2017-08-12T18:47:13.189Z,3.00
2017-08-12T18:49:42.511Z,3.22
2017-08-12T18:52:11.829Z,3.12
2017-08-12T18:54:41.160Z,3.65
2017-08-12T18:57:10.485Z,3.60
2017-08-12T18:59:39.819Z,3.37
2017-08-12T19:02:09.939Z,3.30
2017-08-12T19:04:39.249Z,3.47
2017-08-12T19:07:09.509Z,4.25
2017-08-12T19:09:38.824Z,3.95
2017-08-12T19:12:08.241Z,2.92
2017-08-12T19:14:37.685Z,4.20
2017-08-12T19:17:07.796Z,3.67
2017-08-12T19:19:37.159Z,3.67
2017-08-12T19:22:07.109Z,4.20
2017-08-12T19:24:37.212Z,4.32
2017-08-12T19:27:06.533Z,4.95
2017-08-12T19:29:38.660Z,4.87
2017-08-12T19:32:08.131Z,3.92
2017-08-12T19:34:38.349Z,3.87
2017-08-12T19:37:07.840Z,4.20
2017-08-12T19:39:37.243Z,4.32
2017-08-12T19:42:07.326Z,5.55
2017-08-12T19:44:36.652Z,5.00
2017-08-12T19:47:06.899Z,4.28
2017-08-12T19:49:36.984Z,3.95
2017-08-12T19:52:06.381Z,4.18
2017-08-12T19:54:35.725Z,4.30
2017-08-12T19:57:05.955Z,4.57
2017-08-12T19:59:35.293Z,4.62
2017-08-12T20:02:04.609Z,4.43
2017-08-12T20:04:33.948Z,4.20
2017-08-12T20:07:03.274Z,4.40
2017-08-12T20:09:32.613Z,4.40
2017-08-12T20:12:01.940Z,4.87
2017-08-12T20:14:31.250Z,4.47
2017-08-12T20:17:00.588Z,4.40
2017-08-12T20:19:29.901Z,3.90
2017-08-12T20:21:59.242Z,4.62
2017-08-12T20:24:29.202Z,4.10
2017-08-12T20:26:58.537Z,5.22
2017-08-12T20:29:27.868Z,4.00
2017-08-12T20:31:57.208Z,4.68
2017-08-12T20:34:26.536Z,4.40
2017-08-12T20:36:55.858Z,5.40
2017-08-12T20:39:25.161Z,5.82
2017-08-12T20:41:55.340Z,4.62
2017-08-12T20:44:24.644Z,4.72
2017-08-12T20:46:54.005Z,3.83
2017-08-12T20:49:24.131Z,4.30
2017-08-12T20:51:54.501Z,4.30
2017-08-12T20:54:23.854Z,4.60
2017-08-12T20:56:53.961Z,5.25
2017-08-12T20:59:23.297Z,4.15
2017-08-12T21:01:52.615Z,5.05
2017-08-12T21:04:21.943Z,4.20
2017-08-12T21:06:51.275Z,5.15
2017-08-12T21:09:21.366Z,4.80
2017-08-12T21:11:50.688Z,5.20
2017-08-12T21:14:20.014Z,5.10
2017-08-12T21:16:49.332Z,4.95
2017-08-12T21:19:18.659Z,5.35
2017-08-12T21:21:47.961Z,5.40
2017-08-12T21:24:17.316Z,4.70
2017-08-12T21:26:47.490Z,5.12
2017-08-12T21:29:16.812Z,5.03
2017-08-12T21:31:46.143Z,5.55
2017-08-12T21:34:15.471Z,5.37
2017-08-12T21:36:44.836Z,5.85
2017-08-12T21:39:14.153Z,5.37
2017-08-12T21:41:43.485Z,5.45
2017-08-12T21:44:12.821Z,5.57
2017-08-12T21:46:42.144Z,5.90
2017-08-12T21:49:11.477Z,5.70
2017-08-12T21:51:40.819Z,5.87
2017-08-12T21:54:10.132Z,5.37
2017-08-12T21:56:39.486Z,5.40
2017-08-12T21:59:08.813Z,5.55
2017-08-12T22:01:38.121Z,5.65
2017-08-12T22:04:07.454Z,5.12
2017-08-12T22:06:37.533Z,5.20
2017-08-12T22:09:06.877Z,5.40
2017-08-12T22:11:36.188Z,5.45
2017-08-12T22:14:05.852Z,5.68
2017-08-12T22:16:35.173Z,4.20
2017-08-12T22:19:04.516Z,5.75
2017-08-12T22:21:33.845Z,5.25
2017-08-12T22:24:03.281Z,5.32
2017-08-12T22:26:32.642Z,5.32
2017-08-12T22:29:02.017Z,5.72
2017-08-12T22:31:31.342Z,5.45
2017-08-12T22:34:01.435Z,5.75
2017-08-12T22:36:30.752Z,6.18
2017-08-12T22:39:00.097Z,5.68
2017-08-12T22:41:29.401Z,6.00
2017-08-12T22:43:58.736Z,6.50
2017-08-12T22:46:28.064Z,5.70
2017-08-12T22:48:57.409Z,6.05
2017-08-12T22:51:26.721Z,5.57
2017-08-12T22:53:56.052Z,6.20
2017-08-12T22:56:25.380Z,5.68
2017-08-12T22:58:55.475Z,6.55
2017-08-12T23:01:24.812Z,5.65
2017-08-12T23:03:54.146Z,6.53
2017-08-12T23:06:24.294Z,6.50
2017-08-12T23:08:53.597Z,6.00
2017-08-12T23:11:22.921Z,5.30
2017-08-12T23:13:52.999Z,6.43
2017-08-12T23:16:22.325Z,6.20
2017-08-12T23:18:51.789Z,6.50
2017-08-12T23:21:21.127Z,6.28
2017-08-12T23:23:50.454Z,5.90
2017-08-12T23:26:19.793Z,6.37
2017-08-12T23:28:49.212Z,5.93
2017-08-12T23:31:18.562Z,6.55
2017-08-12T23:33:48.658Z,5.57
2017-08-12T23:36:17.993Z,6.00
2017-08-12T23:38:47.318Z,7.00
2017-08-12T23:41:16.640Z,6.68
2017-08-12T23:43:45.977Z,6.37
2017-08-12T23:46:15.316Z,6.45
2017-08-12T23:48:44.638Z,6.18
2017-08-12T23:51:13.968Z,6.00
2017-08-12T23:53:43.295Z,6.25
2017-08-12T23:56:13.450Z,5.85
2017-08-12T23:58:42.778Z,6.10
